createdAt,value
2016-11-04T10:36:18.257Z,18.91
2016-11-04T10:36:43.813Z,18.92
2016-11-04T10:37:09.385Z,18.91
2016-11-04T10:37:35.144Z,18.99
2016-11-04T10:38:00.703Z,18.99
2016-11-04T10:38:26.319Z,19.01
2016-11-04T10:38:51.899Z,19.05
2016-11-04T10:39:17.449Z,19.05
2016-11-04T10:39:42.991Z,19.08
2016-11-04T10:40:08.680Z,19.06
2016-11-04T10:40:34.225Z,19.14
2016-11-04T10:40:59.778Z,19.1
2016-11-04T10:41:25.464Z,19.1
2016-11-04T10:41:51.018Z,19.13
2016-11-04T10:42:16.585Z,19.05
2016-11-04T10:42:42.140Z,19.11
2016-11-04T10:43:07.710Z,19.11
2016-11-04T10:43:33.275Z,19.13
2016-11-04T10:43:58.901Z,19.17
2016-11-04T10:44:24.471Z,19.2
2016-11-04T10:44:50.042Z,19.15
2016-11-04T10:45:15.627Z,19.24
2016-11-04T10:45:41.219Z,19.24
2016-11-04T10:46:06.769Z,19.25
2016-11-04T10:46:32.331Z,19.24
2016-11-04T10:46:57.876Z,19.31
2016-11-04T10:47:23.423Z,19.35
2016-11-04T10:47:48.974Z,19.33
2016-11-04T10:48:14.577Z,19.33
2016-11-04T10:48:40.134Z,19.36
2016-11-04T10:49:05.697Z,19.36
2016-11-04T10:49:31.273Z,19.42
2016-11-04T10:49:56.833Z,19.43
2016-11-04T10:50:22.380Z,19.38
2016-11-04T10:50:47.926Z,19.42
2016-11-04T10:51:13.580Z,19.4
2016-11-04T10:51:39.148Z,19.4
2016-11-04T10:52:04.698Z,19.46
2016-11-04T10:52:30.347Z,19.54
2016-11-04T10:52:55.880Z,19.48
2016-11-04T10:53:21.432Z,19.51
2016-11-04T10:53:46.991Z,19.53
2016-11-04T10:54:12.542Z,19.48
2016-11-04T10:54:38.089Z,19.58
2016-11-04T10:55:03.707Z,19.57
2016-11-04T10:55:29.337Z,19.61
2016-11-04T10:55:54.888Z,19.61
2016-11-04T10:56:20.469Z,19.65
2016-11-04T10:56:46.006Z,19.57
2016-11-04T10:57:11.547Z,19.65
2016-11-04T10:57:37.105Z,19.54
2016-11-04T10:58:02.678Z,19.66
2016-11-04T10:58:28.298Z,19.69
2016-11-04T10:58:53.923Z,19.7
2016-11-04T10:59:19.546Z,19.68
2016-11-04T10:59:45.097Z,19.78
2016-11-04T11:00:10.712Z,19.79
2016-11-04T11:00:36.310Z,19.8
2016-11-04T11:01:01.880Z,19.86
2016-11-04T11:01:27.552Z,19.9
2016-11-04T11:01:53.115Z,19.9
2016-11-04T11:02:18.701Z,19.93
2016-11-04T11:02:44.254Z,19.91
2016-11-04T11:03:09.949Z,20
2016-11-04T11:03:35.495Z,19.93
2016-11-04T11:04:01.087Z,20.05
2016-11-04T11:04:26.695Z,20
2016-11-04T11:04:52.243Z,20.09
2016-11-04T11:05:17.800Z,20.09
2016-11-04T11:05:43.366Z,20.13
2016-11-04T11:06:08.938Z,20.2
2016-11-04T11:06:34.536Z,20.2
2016-11-04T11:07:00.320Z,20.25
2016-11-04T11:07:26.452Z,20.21
2016-11-04T11:07:51.464Z,20.25
2016-11-04T11:08:17.041Z,20.31
2016-11-04T11:08:42.719Z,20.38
2016-11-04T11:09:08.301Z,20.27
2016-11-04T11:09:33.888Z,20.31
2016-11-04T11:09:59.468Z,20.38
2016-11-04T11:10:25.080Z,20.33
2016-11-04T11:10:50.677Z,20.41
2016-11-04T11:11:16.237Z,20.41
2016-11-04T11:11:41.775Z,20.43
2016-11-04T11:12:07.382Z,20.43
2016-11-04T11:12:32.949Z,20.47
2016-11-04T11:12:58.529Z,20.56
2016-11-04T11:13:24.157Z,20.49
2016-11-04T11:13:49.925Z,20.53
2016-11-04T11:14:58.355Z,20.53
2016-11-04T11:15:23.970Z,20.62
2016-11-04T11:15:49.541Z,20.61
2016-11-04T11:16:15.096Z,20.68
2016-11-04T11:16:40.661Z,20.68
2016-11-04T11:17:06.230Z,20.68
2016-11-04T11:17:31.800Z,20.69
2016-11-04T11:17:57.374Z,20.68
2016-11-04T11:18:23.067Z,20.72
2016-11-04T11:18:48.663Z,20.77
2016-11-04T11:19:14.303Z,20.79
2016-11-04T11:19:39.887Z,20.8
2016-11-04T11:20:05.443Z,20.8
2016-11-04T11:20:31.671Z,20.9
2016-11-04T11:20:57.203Z,20.9
2016-11-04T11:21:22.775Z,20.89
2016-11-04T11:21:48.311Z,20.9
2016-11-04T11:22:13.946Z,20.83
2016-11-04T11:22:39.537Z,20.9
2016-11-04T11:23:05.109Z,20.86
2016-11-04T11:23:30.779Z,20.89
2016-11-04T11:23:56.342Z,20.87
2016-11-04T11:24:21.984Z,20.84
2016-11-04T11:24:47.580Z,20.89
2016-11-04T11:25:13.139Z,20.87
2016-11-04T11:25:38.699Z,20.9
2016-11-04T11:26:04.252Z,20.93
2016-11-04T11:26:29.814Z,20.98
2016-11-04T11:26:55.364Z,20.93
2016-11-04T11:27:20.927Z,20.9
2016-11-04T11:27:46.500Z,20.87
2016-11-04T11:28:12.099Z,21.04
2016-11-04T11:28:37.668Z,20.93
2016-11-04T11:29:03.333Z,20.99
2016-11-04T11:29:28.880Z,21.06
2016-11-04T11:29:54.544Z,21.09
2016-11-04T11:30:20.137Z,21.06
2016-11-04T11:30:45.690Z,21.06
2016-11-04T11:31:11.288Z,21.08
2016-11-04T11:31:36.956Z,21.02
2016-11-04T11:32:02.518Z,21.05
2016-11-04T11:32:28.060Z,21.09
2016-11-04T11:32:53.617Z,21.08
2016-11-04T11:33:19.200Z,21.06
2016-11-04T11:33:44.760Z,21.11
2016-11-04T11:34:10.319Z,21.08
2016-11-04T11:34:35.882Z,21.11
2016-11-04T11:35:01.427Z,20.98
2016-11-04T11:35:54.433Z,21.05
2016-11-04T11:36:19.983Z,20.99
2016-11-04T11:36:45.558Z,20.98
2016-11-04T11:37:11.142Z,21.01
2016-11-04T11:37:36.703Z,20.99
2016-11-04T11:38:02.252Z,20.89
2016-11-04T11:38:27.807Z,20.86
2016-11-04T11:38:53.364Z,20.89
2016-11-04T11:39:18.924Z,20.95
2016-11-04T11:39:44.503Z,20.87
2016-11-04T11:40:10.078Z,21.01
2016-11-04T11:40:35.616Z,20.99
2016-11-04T11:41:01.180Z,20.93
2016-11-04T11:41:26.743Z,20.81
2016-11-04T11:41:52.319Z,20.83
2016-11-04T11:42:17.857Z,20.87
2016-11-04T11:42:43.414Z,20.89
2016-11-04T11:43:08.973Z,20.86
2016-11-04T11:43:34.555Z,20.87
2016-11-04T11:44:00.119Z,20.87
2016-11-04T11:44:25.684Z,20.86
2016-11-04T11:44:51.235Z,20.86
2016-11-04T11:45:16.786Z,20.93
2016-11-04T11:45:42.339Z,20.9
2016-11-04T11:46:07.903Z,20.84
2016-11-04T11:46:33.471Z,20.87
2016-11-04T11:46:59.079Z,20.89
2016-11-04T11:47:24.640Z,20.86
2016-11-04T11:47:50.228Z,20.77
2016-11-04T11:48:15.793Z,20.81
2016-11-04T11:48:41.419Z,20.79
2016-11-04T11:49:06.952Z,20.87
2016-11-04T11:49:32.530Z,20.81
2016-11-04T11:49:58.077Z,20.86
2016-11-04T11:50:23.682Z,20.84
2016-11-04T11:50:49.285Z,20.83
2016-11-04T11:51:14.896Z,20.83
2016-11-04T11:51:40.557Z,20.81
2016-11-04T11:52:06.369Z,20.81
2016-11-04T11:52:32.000Z,20.81
2016-11-04T11:52:57.576Z,20.8
2016-11-04T11:53:23.370Z,20.81
2016-11-04T11:53:48.763Z,20.8
2016-11-04T11:54:14.337Z,20.87
2016-11-04T11:54:39.920Z,20.89
2016-11-04T11:55:05.636Z,20.84
2016-11-04T11:55:31.329Z,20.86
2016-11-04T11:55:56.939Z,20.86
2016-11-04T11:56:22.408Z,20.9
2016-11-04T11:56:47.963Z,20.9
2016-11-04T11:57:13.513Z,20.9
2016-11-04T11:57:39.113Z,20.87
2016-11-04T11:58:04.777Z,20.86
2016-11-04T11:58:30.505Z,20.83
2016-11-04T11:58:56.147Z,20.9
2016-11-04T11:59:21.911Z,20.87
2016-11-04T11:59:47.532Z,20.91
2016-11-04T12:00:13.240Z,20.84
2016-11-04T12:00:38.959Z,20.83
2016-11-04T12:01:04.822Z,20.87
2016-11-04T12:01:30.409Z,20.83
2016-11-04T12:01:55.953Z,20.84
2016-11-04T12:02:21.511Z,20.89
2016-11-04T12:02:47.069Z,20.84
2016-11-04T12:03:12.625Z,20.81
2016-11-04T12:03:38.205Z,20.77
2016-11-04T12:04:03.887Z,20.89
2016-11-04T12:04:29.443Z,20.84
2016-11-04T12:04:55.007Z,20.8
2016-11-04T12:05:20.653Z,20.81
2016-11-04T12:05:46.315Z,20.84
2016-11-04T12:06:54.644Z,20.87
2016-11-04T12:07:20.322Z,20.86
2016-11-04T12:07:46.066Z,20.87
2016-11-04T12:08:11.649Z,20.81
2016-11-04T12:08:37.190Z,20.86
2016-11-04T12:09:02.775Z,20.8
2016-11-04T12:09:28.421Z,20.89
2016-11-04T12:09:53.979Z,20.84
2016-11-04T12:10:19.555Z,20.79
2016-11-04T12:10:45.107Z,20.81
2016-11-04T12:11:48.572Z,20.79
2016-11-04T12:12:14.072Z,20.81
2016-11-04T12:12:39.670Z,20.79
2016-11-04T12:13:05.227Z,20.77
2016-11-04T12:13:30.827Z,20.77
2016-11-04T12:13:56.399Z,20.74
2016-11-04T12:14:21.997Z,20.72
2016-11-04T12:14:47.575Z,20.74
2016-11-04T12:15:13.187Z,20.71
2016-11-04T12:15:38.742Z,20.68
2016-11-04T12:16:04.280Z,20.68
2016-11-04T12:16:29.881Z,20.66
2016-11-04T12:16:55.442Z,20.69
2016-11-04T12:17:20.993Z,20.66
2016-11-04T12:17:46.558Z,20.69
2016-11-04T12:18:12.091Z,20.65
2016-11-04T12:18:37.669Z,20.64
2016-11-04T12:19:03.232Z,20.62
2016-11-04T12:19:28.796Z,20.61
2016-11-04T12:19:54.342Z,20.62
2016-11-04T12:20:19.900Z,20.65
2016-11-04T12:20:45.470Z,20.59
2016-11-04T12:21:11.037Z,20.5
2016-11-04T12:21:36.575Z,20.54
2016-11-04T12:22:02.118Z,20.56
2016-11-04T12:22:27.661Z,20.53
2016-11-04T12:22:53.209Z,20.51
2016-11-04T12:23:18.921Z,20.51
2016-11-04T12:23:44.473Z,20.5
2016-11-04T12:24:10.070Z,20.51
2016-11-04T12:24:58.422Z,20.38
2016-11-04T12:25:23.553Z,20.39
2016-11-04T12:25:49.167Z,20.35
2016-11-04T12:26:57.458Z,20.41
2016-11-04T12:27:22.991Z,20.33
2016-11-04T12:27:55.188Z,20.38
2016-11-04T12:29:55.697Z,20.21
2016-11-04T12:30:21.250Z,20.24
2016-11-04T12:30:46.800Z,20.27
2016-11-04T12:31:50.041Z,20.2
2016-11-04T12:32:15.602Z,20.2
2016-11-04T12:32:41.153Z,20.21
2016-11-04T12:33:06.736Z,20.21
2016-11-04T12:33:32.355Z,20.16
2016-11-04T12:33:57.979Z,20.18
2016-11-04T12:34:23.550Z,20.13
2016-11-04T12:34:49.169Z,20.09
2016-11-04T12:35:14.779Z,20.12
2016-11-04T12:35:40.383Z,20.12
2016-11-04T12:36:06.052Z,20.03
2016-11-04T12:36:31.630Z,20.13
2016-11-04T12:36:57.335Z,20.03
2016-11-04T12:37:22.894Z,19.97
2016-11-04T12:37:48.595Z,20.05
2016-11-04T12:38:14.197Z,20.02
2016-11-04T12:38:39.842Z,20.05
2016-11-04T12:39:05.426Z,20.03
2016-11-04T12:39:31.017Z,20.06
2016-11-04T12:39:56.689Z,19.95
2016-11-04T12:40:22.213Z,19.94
2016-11-04T12:40:47.797Z,19.95
2016-11-04T12:41:13.409Z,19.95
2016-11-04T12:41:39.010Z,19.91
2016-11-04T12:42:04.565Z,19.98
2016-11-04T12:42:30.101Z,20
2016-11-04T12:42:55.706Z,19.94
2016-11-04T12:43:21.274Z,19.97
2016-11-04T12:43:46.814Z,19.97
2016-11-04T12:44:12.625Z,19.95
2016-11-04T12:44:38.204Z,19.93
2016-11-04T12:45:03.804Z,19.93
2016-11-04T12:45:29.396Z,19.88
2016-11-04T12:45:54.962Z,19.86
2016-11-04T12:46:20.515Z,19.84
2016-11-04T12:46:46.099Z,19.86
2016-11-04T12:47:11.650Z,19.87
2016-11-04T12:47:37.242Z,19.79
2016-11-04T12:48:02.788Z,19.86
2016-11-04T12:48:28.358Z,19.78
2016-11-04T12:48:53.978Z,19.83
2016-11-04T12:49:19.655Z,19.8
2016-11-04T12:49:45.252Z,19.73
2016-11-04T12:50:10.829Z,19.86
2016-11-04T12:50:36.431Z,19.79
2016-11-04T12:51:02.074Z,19.79
2016-11-04T12:51:27.622Z,19.76
2016-11-04T12:51:53.152Z,19.72
2016-11-04T12:52:18.689Z,19.61
2016-11-04T12:52:44.376Z,19.68
2016-11-04T12:53:09.951Z,19.75
2016-11-04T12:53:35.761Z,19.68
2016-11-04T12:54:01.363Z,19.66
2016-11-04T12:54:27.086Z,19.7
2016-11-04T12:54:52.645Z,19.66
2016-11-04T12:55:18.197Z,19.68
2016-11-04T12:55:43.781Z,19.68
2016-11-04T12:56:09.352Z,19.68
2016-11-04T12:56:34.929Z,19.58
2016-11-04T12:57:00.467Z,19.72
2016-11-04T12:57:26.028Z,19.78
2016-11-04T12:57:51.639Z,19.7
2016-11-04T12:58:17.223Z,19.63
2016-11-04T12:58:43.517Z,19.63
2016-11-04T12:59:09.089Z,19.76
2016-11-04T12:59:34.847Z,19.57
2016-11-04T13:00:00.424Z,19.61
2016-11-04T13:00:26.000Z,19.65
2016-11-04T13:00:51.557Z,19.57
2016-11-04T13:01:17.173Z,19.63
2016-11-04T13:01:42.763Z,19.69
2016-11-04T13:02:08.322Z,19.66
2016-11-04T13:02:33.883Z,19.61
2016-11-04T13:02:59.435Z,19.61
2016-11-04T13:03:25.017Z,19.65
2016-11-04T13:03:50.581Z,19.6
2016-11-04T13:04:16.159Z,19.63
2016-11-04T13:04:41.698Z,19.65
2016-11-04T13:05:07.358Z,19.65
2016-11-04T13:05:32.926Z,19.58
2016-11-04T13:05:58.466Z,19.57
2016-11-04T13:06:24.044Z,19.51
2016-11-04T13:06:49.613Z,19.57
2016-11-04T13:07:15.172Z,19.51
2016-11-04T13:07:40.744Z,19.58
2016-11-04T13:08:06.311Z,19.5
2016-11-04T13:08:31.897Z,19.54
2016-11-04T13:09:25.540Z,19.53
2016-11-04T13:09:50.961Z,19.5
2016-11-04T13:10:16.498Z,19.53
2016-11-04T13:10:42.121Z,19.5
2016-11-04T13:11:07.662Z,19.55
2016-11-04T13:11:33.215Z,19.51
2016-11-04T13:11:58.812Z,19.53
2016-11-04T13:12:24.360Z,19.48
2016-11-04T13:12:49.891Z,19.47
2016-11-04T13:13:15.461Z,19.47
2016-11-04T13:13:41.813Z,19.51
2016-11-04T13:14:07.377Z,19.47
2016-11-04T13:14:33.044Z,19.51
2016-11-04T13:14:58.751Z,19.51
2016-11-04T13:15:24.127Z,19.48
2016-11-04T13:15:49.746Z,19.48
2016-11-04T13:16:15.343Z,19.58
2016-11-04T13:16:40.892Z,19.55
2016-11-04T13:17:06.443Z,19.48
2016-11-04T13:17:32.027Z,19.51
2016-11-04T13:17:57.810Z,19.53
2016-11-04T13:18:23.409Z,19.53
2016-11-04T13:18:49.022Z,19.42
2016-11-04T13:19:14.519Z,19.5
2016-11-04T13:19:40.084Z,19.5
2016-11-04T13:20:05.639Z,19.46
2016-11-04T13:20:31.192Z,19.5
2016-11-04T13:20:56.804Z,19.46
2016-11-04T13:21:22.390Z,19.48
2016-11-04T13:21:48.047Z,19.4
2016-11-04T13:22:13.743Z,19.46
2016-11-04T13:22:39.378Z,19.43
2016-11-04T13:23:04.981Z,19.51
2016-11-04T13:23:30.563Z,19.43
2016-11-04T13:23:56.143Z,19.42
2016-11-04T13:24:22.106Z,19.48
2016-11-04T13:24:47.506Z,19.48
2016-11-04T13:25:13.049Z,19.47
2016-11-04T13:25:38.637Z,19.43
2016-11-04T13:26:04.254Z,19.48
2016-11-04T13:26:29.824Z,19.46
2016-11-04T13:26:55.472Z,19.36
2016-11-04T13:27:58.914Z,19.48
2016-11-04T13:28:24.337Z,19.38
2016-11-04T13:28:50.015Z,19.46
2016-11-04T13:29:15.578Z,19.42
2016-11-04T13:29:41.148Z,19.43
2016-11-04T13:30:06.879Z,19.48
2016-11-04T13:30:32.431Z,19.4
2016-11-04T13:30:57.995Z,19.42
2016-11-04T13:31:23.550Z,19.46
2016-11-04T13:31:49.169Z,19.4
2016-11-04T13:32:14.705Z,19.33
2016-11-04T13:32:40.268Z,19.42
2016-11-04T13:33:29.288Z,19.39
2016-11-04T13:33:54.593Z,19.33
2016-11-04T13:34:20.138Z,19.38
2016-11-04T13:34:45.700Z,19.38
2016-11-04T13:35:11.257Z,19.38
2016-11-04T13:35:36.820Z,19.35
2016-11-04T13:36:02.359Z,19.36
2016-11-04T13:36:27.986Z,19.32
2016-11-04T13:36:53.535Z,19.42
2016-11-04T13:37:19.113Z,19.32
2016-11-04T13:37:44.790Z,19.42
2016-11-04T13:38:10.355Z,19.36
2016-11-04T13:38:35.908Z,19.32
2016-11-04T13:39:01.582Z,19.35
2016-11-04T13:39:27.165Z,19.32
2016-11-04T13:39:52.713Z,19.35
2016-11-04T13:40:18.360Z,19.32
2016-11-04T13:40:43.845Z,19.31
2016-11-04T13:41:09.414Z,19.35
2016-11-04T13:41:34.974Z,19.31
2016-11-04T13:42:00.544Z,19.29
2016-11-04T13:42:26.110Z,19.39
2016-11-04T13:42:51.677Z,19.33
2016-11-04T13:43:17.304Z,19.33
2016-11-04T13:43:42.863Z,19.25
2016-11-04T13:44:08.548Z,19.33
2016-11-04T13:44:34.192Z,19.36
2016-11-04T13:44:59.822Z,19.35
2016-11-04T13:45:25.413Z,19.33
2016-11-04T13:45:50.985Z,19.35
2016-11-04T13:46:16.578Z,19.21
2016-11-04T13:46:42.194Z,19.29
2016-11-04T13:47:07.770Z,19.24
2016-11-04T13:47:33.334Z,19.28
2016-11-04T13:47:58.917Z,19.35
2016-11-04T13:48:24.631Z,19.24
2016-11-04T13:48:50.193Z,19.31
2016-11-04T13:49:15.767Z,19.31
2016-11-04T13:49:41.343Z,19.21
2016-11-04T13:50:06.886Z,19.25
2016-11-04T13:50:32.448Z,19.29
2016-11-04T13:50:57.997Z,19.28
2016-11-04T13:51:23.569Z,19.25
2016-11-04T13:51:49.111Z,19.24
2016-11-04T13:52:14.644Z,19.31
2016-11-04T13:52:40.186Z,19.25
2016-11-04T13:53:05.854Z,19.25
2016-11-04T13:53:31.510Z,19.25
2016-11-04T13:53:57.154Z,19.28
2016-11-04T13:54:23.340Z,19.25
2016-11-04T13:54:48.937Z,19.23
2016-11-04T13:55:14.487Z,19.28
2016-11-04T13:55:40.052Z,19.21
2016-11-04T13:56:05.658Z,19.23
2016-11-04T13:56:31.201Z,19.25
2016-11-04T13:56:56.752Z,19.24
2016-11-04T13:57:22.319Z,19.2
2016-11-04T13:57:47.905Z,19.21
2016-11-04T13:58:13.457Z,19.23
2016-11-04T13:58:39.025Z,19.18
2016-11-04T13:59:04.582Z,19.21
2016-11-04T13:59:30.152Z,19.24
2016-11-04T13:59:55.794Z,19.24
2016-11-04T14:00:21.370Z,19.24
2016-11-04T14:00:46.929Z,19.29
2016-11-04T14:01:12.657Z,19.17
2016-11-04T14:01:38.178Z,19.23
2016-11-04T14:02:03.735Z,19.18
2016-11-04T14:02:29.292Z,19.2
2016-11-04T14:02:54.895Z,19.11
2016-11-04T14:03:20.446Z,19.17
2016-11-04T14:03:46.020Z,19.23
2016-11-04T14:04:11.598Z,19.2
2016-11-04T14:04:37.218Z,19.17
2016-11-04T14:05:02.756Z,19.08
2016-11-04T14:05:28.329Z,19.08
2016-11-04T14:05:53.915Z,19.08
2016-11-04T14:06:19.465Z,19.1
2016-11-04T14:06:44.995Z,19.13
2016-11-04T14:07:10.545Z,19.08
2016-11-04T14:07:36.156Z,19.14
2016-11-04T14:08:01.734Z,19.14
2016-11-04T14:08:27.301Z,19.11
2016-11-04T14:08:52.845Z,19.13
2016-11-04T14:09:18.411Z,19.13
2016-11-04T14:09:44.004Z,19.13
2016-11-04T14:10:09.558Z,19.18
2016-11-04T14:10:35.154Z,19.13
2016-11-04T14:11:00.752Z,19.06
2016-11-04T14:11:26.335Z,19.13
2016-11-04T14:11:51.913Z,19.14
2016-11-04T14:12:17.470Z,19.11
2016-11-04T14:12:43.025Z,19.13
2016-11-04T14:13:08.587Z,19.08
2016-11-04T14:13:34.145Z,19.06
2016-11-04T14:13:59.714Z,19.05
2016-11-04T14:14:25.329Z,19.08
2016-11-04T14:14:50.945Z,19.06
2016-11-04T14:15:16.545Z,19.01
2016-11-04T14:15:42.656Z,19.05
2016-11-04T14:16:08.226Z,19.02
2016-11-04T14:16:33.806Z,18.98
2016-11-04T14:16:59.360Z,19.08
2016-11-04T14:17:25.064Z,19.02
2016-11-04T14:17:50.639Z,19.02
2016-11-04T14:18:16.199Z,19.02
2016-11-04T14:18:41.802Z,19.05
2016-11-04T14:19:07.351Z,19.05
2016-11-04T14:19:32.965Z,19.05
2016-11-04T14:19:58.466Z,19.01
2016-11-04T14:20:24.004Z,18.99
2016-11-04T14:20:49.627Z,19.05
2016-11-04T14:21:15.281Z,19.02
2016-11-04T14:21:40.979Z,19.01
2016-11-04T14:22:06.530Z,19.05
2016-11-04T14:22:32.090Z,18.99
2016-11-04T14:22:57.728Z,19.05
2016-11-04T14:23:23.406Z,18.95
2016-11-04T14:23:48.972Z,18.95
2016-11-04T14:24:14.534Z,18.99
2016-11-04T14:24:40.209Z,18.97
2016-11-04T14:25:05.740Z,18.97
2016-11-04T14:25:31.323Z,18.97
2016-11-04T14:25:56.990Z,18.9
2016-11-04T14:26:22.548Z,18.87
2016-11-04T14:26:48.117Z,19.02
2016-11-04T14:27:13.763Z,18.95
2016-11-04T14:27:39.384Z,18.92
2016-11-04T14:28:04.948Z,18.95
2016-11-04T14:28:30.628Z,18.91
2016-11-04T14:28:56.208Z,18.94
2016-11-04T14:29:21.761Z,19.01
2016-11-04T14:29:47.353Z,18.92
2016-11-04T14:30:12.890Z,18.91
2016-11-04T14:30:38.566Z,18.95
2016-11-04T14:31:04.111Z,18.95
2016-11-04T14:31:29.686Z,18.94
2016-11-04T14:31:55.241Z,18.9
2016-11-04T14:32:20.815Z,18.94
2016-11-04T14:32:46.434Z,18.94
2016-11-04T14:33:12.000Z,18.86
2016-11-04T14:33:37.644Z,18.97
2016-11-04T14:34:03.238Z,18.91
2016-11-04T14:34:28.811Z,18.94
2016-11-04T14:34:54.453Z,18.97
2016-11-04T14:35:20.026Z,18.94
2016-11-04T14:35:45.582Z,18.98
2016-11-04T14:36:11.164Z,18.94
2016-11-04T14:36:36.835Z,18.92
2016-11-04T14:37:02.409Z,18.91
2016-11-04T14:37:27.972Z,18.92
2016-11-04T14:37:53.563Z,18.86
2016-11-04T14:38:19.231Z,18.97
2016-11-04T14:38:44.800Z,18.95
2016-11-04T14:39:10.522Z,18.95
2016-11-04T14:39:36.100Z,18.95
2016-11-04T14:40:01.634Z,18.94
2016-11-04T14:40:27.207Z,18.87
2016-11-04T14:40:52.764Z,18.86
2016-11-04T14:41:18.395Z,18.87
2016-11-04T14:41:43.977Z,18.87
2016-11-04T14:42:09.630Z,18.83
2016-11-04T14:42:35.185Z,18.8
2016-11-04T14:43:00.732Z,18.84
2016-11-04T14:43:26.289Z,18.86
2016-11-04T14:43:51.867Z,18.86
2016-11-04T14:44:17.510Z,18.86
2016-11-04T14:44:43.068Z,18.82
2016-11-04T14:45:08.640Z,18.86
2016-11-04T14:45:34.179Z,18.87
2016-11-04T14:45:59.817Z,18.84
2016-11-04T14:46:25.422Z,18.84
2016-11-04T14:46:50.996Z,18.84
2016-11-04T14:47:16.617Z,18.91
2016-11-04T14:47:42.190Z,18.84
2016-11-04T14:48:07.743Z,18.82
2016-11-04T14:48:33.441Z,18.82
2016-11-04T14:48:58.985Z,18.87
2016-11-04T14:49:24.533Z,18.84
2016-11-04T14:49:50.119Z,18.8
2016-11-04T14:50:15.657Z,18.8
2016-11-04T14:50:41.222Z,18.87
2016-11-04T14:51:06.808Z,18.87
2016-11-04T14:51:32.374Z,18.79
2016-11-04T14:51:57.984Z,18.82
2016-11-04T14:52:23.529Z,18.9
2016-11-04T14:52:49.140Z,18.79
2016-11-04T14:53:14.675Z,18.83
2016-11-04T14:53:40.252Z,18.87
2016-11-04T14:54:05.835Z,18.83
2016-11-04T14:54:31.418Z,18.83
2016-11-04T14:54:56.982Z,18.86
2016-11-04T14:55:22.538Z,18.79
2016-11-04T14:55:48.156Z,18.8
2016-11-04T14:56:13.783Z,18.79
2016-11-04T14:56:39.345Z,18.86
2016-11-04T14:57:04.911Z,18.86
2016-11-04T14:57:30.447Z,18.82
2016-11-04T14:57:56.000Z,18.84
2016-11-04T14:58:21.554Z,18.83
2016-11-04T14:58:47.113Z,18.82
2016-11-04T14:59:12.681Z,18.82
2016-11-04T14:59:38.269Z,18.83
2016-11-04T15:00:03.834Z,18.86
2016-11-04T15:00:29.400Z,18.8
2016-11-04T15:00:54.982Z,18.74
2016-11-04T15:01:20.526Z,18.8
2016-11-04T15:01:46.100Z,18.79
2016-11-04T15:02:11.732Z,18.77
2016-11-04T15:02:37.310Z,18.74
2016-11-04T15:03:02.883Z,18.77
2016-11-04T15:03:28.464Z,18.74
2016-11-04T15:03:54.120Z,18.74
2016-11-04T15:04:19.707Z,18.77
2016-11-04T15:04:45.257Z,18.77
2016-11-04T15:05:10.798Z,18.7
2016-11-04T15:05:36.355Z,18.74
2016-11-04T15:06:01.914Z,18.74
2016-11-04T15:06:27.468Z,18.76
2016-11-04T15:06:53.045Z,18.74
2016-11-04T15:07:18.736Z,18.74
2016-11-04T15:07:44.322Z,18.77
2016-11-04T15:08:09.905Z,18.73
2016-11-04T15:08:35.464Z,18.74
2016-11-04T15:09:01.092Z,18.74
2016-11-04T15:09:26.640Z,18.76
2016-11-04T15:09:52.198Z,18.77
2016-11-04T15:10:17.755Z,18.76
2016-11-04T15:10:43.299Z,18.76
2016-11-04T15:11:08.885Z,18.77
2016-11-04T15:11:34.494Z,18.73
2016-11-04T15:12:00.087Z,18.74
2016-11-04T15:12:25.655Z,18.77
2016-11-04T15:12:51.209Z,18.74
2016-11-04T15:13:16.792Z,18.84
2016-11-04T15:13:42.316Z,18.8
2016-11-04T15:14:08.001Z,18.79
2016-11-04T15:14:33.567Z,18.82
2016-11-04T15:14:59.122Z,18.82
2016-11-04T15:15:24.702Z,18.8
2016-11-04T15:15:50.287Z,18.79
2016-11-04T15:16:15.866Z,18.77
2016-11-04T15:16:41.437Z,18.74
2016-11-04T15:17:06.997Z,18.8
2016-11-04T15:17:32.627Z,18.73
2016-11-04T15:17:58.247Z,18.76
2016-11-04T15:18:23.802Z,18.79
2016-11-04T15:18:49.379Z,18.8
2016-11-04T15:19:14.932Z,18.76
2016-11-04T15:19:40.483Z,18.8
2016-11-04T15:20:06.069Z,18.79
2016-11-04T15:20:31.606Z,18.8
2016-11-04T15:20:57.176Z,18.74
2016-11-04T15:21:22.749Z,18.76
2016-11-04T15:21:48.284Z,18.76
2016-11-04T15:22:13.880Z,18.73
2016-11-04T15:22:39.451Z,18.79
2016-11-04T15:23:05.083Z,18.73
2016-11-04T15:23:30.660Z,18.72
2016-11-04T15:23:56.230Z,18.72
2016-11-04T15:24:21.804Z,18.77
2016-11-04T15:24:47.375Z,18.7
2016-11-04T15:25:12.957Z,18.72
2016-11-04T15:25:38.502Z,18.76
2016-11-04T15:26:04.070Z,18.73
2016-11-04T15:26:29.647Z,18.73
2016-11-04T15:26:55.216Z,18.72
2016-11-04T15:27:20.818Z,18.74
2016-11-04T15:27:46.399Z,18.79
2016-11-04T15:28:11.962Z,18.73
2016-11-04T15:28:37.529Z,18.77
2016-11-04T15:29:03.098Z,18.77
2016-11-04T15:29:28.646Z,18.77
2016-11-04T15:29:54.213Z,18.73
2016-11-04T15:30:19.774Z,18.73
2016-11-04T15:30:45.329Z,18.76
2016-11-04T15:31:10.893Z,18.74
2016-11-04T15:31:36.457Z,18.76
2016-11-04T15:32:02.024Z,18.8
2016-11-04T15:32:27.578Z,18.73
2016-11-04T15:32:53.231Z,18.79
2016-11-04T15:33:18.769Z,18.74
2016-11-04T15:33:44.309Z,18.72
2016-11-04T15:34:09.870Z,18.73
2016-11-04T15:34:35.482Z,18.72
2016-11-04T15:35:01.026Z,18.68
2016-11-04T15:35:26.579Z,18.76
2016-11-04T15:35:52.175Z,18.7
2016-11-04T15:36:17.732Z,18.73
2016-11-04T15:36:43.300Z,18.7
2016-11-04T15:37:08.841Z,18.7
2016-11-04T15:37:34.433Z,18.72
2016-11-04T15:38:00.004Z,18.73
2016-11-04T15:38:25.614Z,18.7
2016-11-04T15:38:51.197Z,18.7
2016-11-04T15:39:16.752Z,18.61
2016-11-04T15:39:42.326Z,18.68
2016-11-04T15:40:08.048Z,18.7
2016-11-04T15:40:33.612Z,18.7
2016-11-04T15:40:59.275Z,18.7
2016-11-04T15:41:24.738Z,18.73
2016-11-04T15:41:50.311Z,18.59
2016-11-04T15:42:15.866Z,18.67
2016-11-04T15:42:41.433Z,18.68
2016-11-04T15:43:06.991Z,18.7
2016-11-04T15:43:32.562Z,18.7
2016-11-04T15:43:58.109Z,18.65
2016-11-04T15:44:23.679Z,18.68
2016-11-04T15:44:49.256Z,18.68
2016-11-04T15:45:14.800Z,18.68
2016-11-04T15:45:40.397Z,18.67
2016-11-04T15:46:06.035Z,18.7
2016-11-04T15:46:31.606Z,18.72
2016-11-04T15:46:57.154Z,18.65
2016-11-04T15:47:22.741Z,18.67
2016-11-04T15:47:48.318Z,18.64
2016-11-04T15:48:13.868Z,18.67
2016-11-04T15:48:39.594Z,18.67
2016-11-04T15:49:05.171Z,18.64
2016-11-04T15:49:30.730Z,18.67
2016-11-04T15:49:56.298Z,18.68
2016-11-04T15:50:21.992Z,18.62
2016-11-04T15:50:47.557Z,18.68
2016-11-04T15:51:13.157Z,18.62
2016-11-04T15:51:38.707Z,18.7
2016-11-04T15:52:04.362Z,18.67
2016-11-04T15:52:29.901Z,18.61
2016-11-04T15:52:55.440Z,18.61
2016-11-04T15:53:20.988Z,18.61
2016-11-04T15:53:46.578Z,18.59
2016-11-04T15:54:12.165Z,18.58
2016-11-04T15:54:37.710Z,18.64
2016-11-04T15:55:03.380Z,18.59
2016-11-04T15:55:28.978Z,18.61
2016-11-04T15:55:54.520Z,18.55
2016-11-04T15:56:20.076Z,18.59
2016-11-04T15:56:45.649Z,18.59
2016-11-04T15:57:11.210Z,18.62
2016-11-04T15:57:36.792Z,18.7
2016-11-04T15:58:02.369Z,18.64
2016-11-04T15:58:27.917Z,18.55
2016-11-04T15:58:53.550Z,18.7
2016-11-04T15:59:19.174Z,18.72
2016-11-04T15:59:44.706Z,18.68
2016-11-04T16:00:10.326Z,18.65
2016-11-04T16:00:35.968Z,18.64
2016-11-04T16:01:01.540Z,18.61
2016-11-04T16:01:27.112Z,18.65
2016-11-04T16:01:52.807Z,18.64
2016-11-04T16:02:18.388Z,18.57
2016-11-04T16:02:43.992Z,18.64
2016-11-04T16:03:09.581Z,18.57
2016-11-04T16:03:35.152Z,18.52
2016-11-04T16:04:00.722Z,18.64
2016-11-04T16:04:26.287Z,18.61
2016-11-04T16:04:51.961Z,18.61
2016-11-04T16:05:17.525Z,18.64
2016-11-04T16:05:43.094Z,18.62
2016-11-04T16:06:08.775Z,18.59
2016-11-04T16:06:34.349Z,18.54
2016-11-04T16:06:59.898Z,18.54
2016-11-04T16:07:25.482Z,18.58
2016-11-04T16:07:51.143Z,18.62
2016-11-04T16:08:16.699Z,18.64
2016-11-04T16:08:42.290Z,18.57
2016-11-04T16:09:07.870Z,18.61
2016-11-04T16:09:33.455Z,18.52
2016-11-04T16:09:59.045Z,18.61
2016-11-04T16:10:24.601Z,18.59
2016-11-04T16:10:50.177Z,18.59
2016-11-04T16:11:15.748Z,18.61
2016-11-04T16:11:41.338Z,18.58
2016-11-04T16:12:06.999Z,18.58
2016-11-04T16:12:32.601Z,18.61
2016-11-04T16:12:58.186Z,18.61
2016-11-04T16:13:23.802Z,18.57
2016-11-04T16:13:49.395Z,18.61
2016-11-04T16:14:14.984Z,18.5